CW3185 Weather Reports


time (UTC)temp
F
wind
direction
speed
knots
gust
knots
rain 1hr
in
rain 24hr
in
rain mn
in
humidity
%
barometer
mb
20260507223503 50 98 0.9 6.1 0.00 0.01 0.01 79 1011.3
20260507223004 50 87 0.0 7.8 0.00 0.01 0.01 79 1011.3
20260507220504 50 70 0.0 1.7 0.00 0.01 0.01 78 1011.2
20260507220004 50 75 0.0 0.0 0.00 0.01 0.01 79 1011.3
20260507213004 51 98 0.0 0.9 0.00 0.01 0.01 78 1011.3
20260507210504 51 87 0.0 0.0 0.00 0.01 0.01 77 1011.3
20260507210005 51 76 0.0 6.1 0.00 0.01 0.01 77 1011.3
20260507203504 51 100 0.0 0.0 0.00 0.01 0.01 77 1011.3
20260507203005 51 77 0.0 0.9 0.00 0.01 0.01 77 1011.3
20260507200504 51 100 0.0 0.0 0.00 0.01 0.01 78 1011.1
20260507200004 51 115 0.0 0.0 0.00 0.01 0.01 78 1011.1
20260507193504 52 175 0.0 0.0 0.00 0.01 0.01 79 1010.9
20260507193005 52 175 0.0 0.0 0.00 0.01 0.01 78 1010.8
20260507190504 52 124 0.0 0.0 0.00 0.01 0.01 77 1010.8
20260507190005 52 125 0.0 0.0 0.00 0.01 0.01 78 1010.8
20260507183504 52 161 0.0 0.0 0.00 0.01 0.01 78 1010.8
20260507183004 52 161 0.0 0.0 0.00 0.01 0.01 78 1010.8
20260507180504 53 132 0.0 0.0 0.00 0.01 0.01 78 1010.8
20260507180005 53 71 0.0 0.0 0.00 0.01 0.01 78 1010.7
20260507173504 54 117 0.0 0.0 0.00 0.01 0.01 77 1010.6
20260507170504 51 118 0.0 0.0 0.00 0.01 0.01 81 1010.7
20260507170004 50 105 0.0 0.9 0.00 0.01 0.01 81 1010.8
20260507163004 49 85 0.0 10.4 0.01 0.01 0.01 80 1010.8
20260507160504 49 75 0.0 0.9 0.01 0.01 0.01 77 1011.0
20260507160006 49 82 0.0 17.4 0.01 0.01 0.01 79 1010.9
20260507153504 49 58 1.7 10.4 0.00 0.00 0.00 80 1011.0
20260507153004 50 77 1.7 13.9 0.00 0.00 0.00 80 1011.3
20260507150504 50 112 0.0 0.9 0.00 0.00 0.00 79 1011.3
20260507150004 51 84 2.6 13.0 0.00 0.00 0.00 77 1011.4
20260507143004 54 78 0.0 11.3 0.00 0.00 0.00 70 1011.3
20260507140504 54 86 0.0 2.6 0.00 0.00 0.00 69 1011.3
20260507140005 54 62 0.0 4.3 0.00 0.00 0.00 69 1011.3
20260507133505 54 76 0.0 0.0 0.00 0.00 0.00 72 1011.4
20260507130504 54 76 0.0 0.9 0.00 0.00 0.00 74 1011.7
20260507130004 53 77 0.0 10.4 0.00 0.00 0.00 74 1011.9
20260507123004 52 70 0.9 8.7 0.00 0.00 0.00 74 1011.9
20260507120504 52 91 0.9 6.1 0.00 0.00 0.00 75 1012.0
20260507113006 51 115 0.0 10.4 0.00 0.00 0.00 75 1012.3
20260507110504 51 77 0.0 10.4 0.00 0.00 0.00 74 1012.3
20260507110005 51 80 0.0 4.3 0.00 0.00 0.00 74 1012.3
20260507103504 51 86 0.0 0.0 0.00 0.00 0.00 72 1012.4
20260507103004 51 91 0.0 0.0 0.00 0.00 0.00 72 1012.4
20260507100504 53 104 0.0 0.0 0.00 0.00 0.00 68 1012.2
20260507100005 53 91 0.0 0.0 0.00 0.00 0.00 69 1012.2
20260507093504 53 127 0.0 0.0 0.00 0.00 0.00 70 1012.4
20260507093004 53 301 0.0 0.0 0.00 0.00 0.00 71 1012.4
20260507090005 52 121 0.0 0.0 0.00 0.00 0.00 71 1012.4
20260507083504 51 98 0.0 0.0 0.00 0.00 0.00 71 1012.5
20260507083004 51 169 0.0 0.0 0.00 0.00 0.00 70 1012.5
20260507073504 48 123 0.0 0.0 0.00 0.00 0.00 73 1012.8
20260507073005 48 162 0.0 0.0 0.00 0.00 0.00 75 1012.8
20260507070504 47 202 0.0 0.0 0.00 0.00 0.00 77 1012.8
20260507070009 47 219 0.0 0.0 0.00 0.00 0.00 77 1012.8
20260507063504 46 194 0.0 0.0 0.00 0.00 0.00 82 1012.8
20260507060004 43 222 0.0 0.0 0.00 0.00 0.00 81 1012.7
20260507053504 43 228 0.0 0.0 0.00 0.00 0.00 81 1012.8
20260507050504 43 222 0.0 0.0 0.00 0.00 0.00 80 1012.9
20260507043504 43 213 0.0 0.0 0.00 0.00 0.00 78 1012.9
20260507043005 43 223 0.0 0.0 0.00 0.00 0.00 79 1012.9
20260507040504 43 226 0.0 0.0 0.00 0.00 0.00 79 1012.8
20260507040004 43 226 0.0 0.0 0.00 0.00 0.00 79 1012.9
20260507033504 43 226 0.0 0.0 0.00 0.00 0.00 79 1012.9
20260507033004 43 226 0.0 0.0 0.00 0.00 0.00 79 1012.9
20260507030504 43 195 0.0 0.0 0.00 0.00 0.00 78 1013.0
20260507030004 43 195 0.0 0.0 0.00 0.00 0.00 78 1013.0
20260507023505 43 275 0.0 0.0 0.00 0.00 0.00 78 1013.2
20260507023004 43 275 0.0 0.0 0.00 0.00 0.00 78 1013.3
20260507020504 43 214 0.0 0.0 0.00 0.00 0.00 78 1013.3
20260507020004 43 234 0.0 0.0 0.00 0.00 0.00 78 1013.3
20260507013505 44 178 0.0 0.0 0.00 0.00 0.00 76 1013.4
20260507013005 44 261 0.0 0.0 0.00 0.00 0.00 76 1013.4
20260507010504 44 172 0.0 0.0 0.00 0.00 0.00 75 1013.5
20260507010005 44 182 0.0 0.0 0.00 0.00 0.00 75 1013.5
20260507003505 45 112 0.0 0.0 0.00 0.00 0.00 74 1013.5
20260507003005 45 159 0.0 0.0 0.00 0.00 0.00 74 1013.6
20260507000505 45 238 0.0 0.0 0.00 0.00 0.00 73 1013.9
20260507000005 45 227 0.0 0.0 0.00 0.00 0.00 73 1013.9